createdAt,value
2019-03-09T00:01:59.787Z,100889.98
2019-03-09T00:04:01.189Z,100877.98
2019-03-09T00:06:02.939Z,100880.85
2019-03-09T00:08:04.267Z,100876.53
2019-03-09T00:10:08.223Z,100873.70
2019-03-09T00:12:09.647Z,100871.03
2019-03-09T00:14:10.964Z,100878.17
2019-03-09T00:16:12.324Z,100869.72
2019-03-09T00:18:13.757Z,100866.19
2019-03-09T00:20:15.134Z,100870.75
2019-03-09T00:22:16.474Z,100868.23
2019-03-09T00:24:36.391Z,100866.78
2019-03-09T00:26:39.731Z,100867.37
2019-03-09T00:28:59.720Z,100869.45
2019-03-09T00:31:03.378Z,100867.52
2019-03-09T00:33:04.938Z,100863.13
2019-03-09T00:35:06.289Z,100859.67
2019-03-09T00:37:07.689Z,100859.61
2019-03-09T00:39:09.368Z,100858.21
2019-03-09T00:41:10.712Z,100856.74
2019-03-09T00:43:12.102Z,100850.70
2019-03-09T00:45:13.431Z,100845.84
2019-03-09T00:47:14.855Z,100838.95
2019-03-09T00:49:16.226Z,100840.97
2019-03-09T00:51:17.620Z,100842.45
2019-03-09T00:53:19.028Z,100841.73
2019-03-09T00:55:20.405Z,100838.12
2019-03-09T00:57:21.986Z,100834.87
2019-03-09T00:59:23.360Z,100841.18
2019-03-09T01:01:24.721Z,100838.08
2019-03-09T01:03:26.099Z,100833.91
2019-03-09T01:05:27.475Z,100831.96
2019-03-09T01:07:28.854Z,100826.89
2019-03-09T01:09:30.255Z,100824.05
2019-03-09T01:11:31.600Z,100814.80
2019-03-09T01:13:32.960Z,100808.30
2019-03-09T01:15:34.517Z,100803.89
2019-03-09T01:17:35.883Z,100793.25
2019-03-09T01:19:37.232Z,100796.23
2019-03-09T01:21:38.673Z,100797.53
2019-03-09T01:23:40.030Z,100798.31
2019-03-09T01:25:41.439Z,100796.70
2019-03-09T01:27:42.811Z,100785.99
2019-03-09T01:29:44.131Z,100785.58
2019-03-09T01:31:45.619Z,100777.09
2019-03-09T01:33:47.015Z,100779.70
2019-03-09T01:35:48.368Z,100778.89
2019-03-09T01:37:49.725Z,100766.67
2019-03-09T01:39:51.087Z,100762.05
2019-03-09T01:41:52.495Z,100765.08
2019-03-09T01:43:53.866Z,100767.28
2019-03-09T01:45:55.283Z,100759.69
2019-03-09T01:47:56.682Z,100758.66
2019-03-09T01:49:58.001Z,100753.86
2019-03-09T01:51:59.371Z,100747.40
2019-03-09T01:54:00.753Z,100744.16
2019-03-09T01:56:02.139Z,100733.20
2019-03-09T01:58:03.501Z,100729.80
2019-03-09T02:00:15.338Z,100730.37
2019-03-09T02:02:16.711Z,100718.70
2019-03-09T02:04:18.109Z,100713.95
2019-03-09T02:06:19.672Z,100708.08
2019-03-09T02:08:21.034Z,100705.04
2019-03-09T02:10:22.398Z,100701.42
2019-03-09T02:12:23.787Z,100696.57
2019-03-09T02:14:25.207Z,100690.66
2019-03-09T02:16:26.569Z,100699.33
2019-03-09T02:18:27.947Z,100698.48
2019-03-09T02:20:29.442Z,100684.31
2019-03-09T02:22:30.870Z,100679.33
2019-03-09T02:24:32.268Z,100680.05
2019-03-09T02:26:33.607Z,100681.28
2019-03-09T02:28:34.978Z,100675.25
2019-03-09T02:30:36.567Z,100666.78
2019-03-09T02:32:37.972Z,100672.27
2019-03-09T02:34:39.313Z,100668.03
2019-03-09T02:36:40.710Z,100662.19
2019-03-09T02:38:46.591Z,100657.28
2019-03-09T02:40:48.184Z,100649.65
2019-03-09T02:42:49.542Z,100646.77
2019-03-09T02:44:50.910Z,100638.59
2019-03-09T02:46:52.310Z,100638.62
2019-03-09T02:48:53.673Z,100626.08
2019-03-09T02:50:55.025Z,100615.53
2019-03-09T02:52:56.412Z,100615.33
2019-03-09T02:54:57.768Z,100616.18
2019-03-09T02:56:59.134Z,100609.87
2019-03-09T02:59:00.531Z,100598.62
2019-03-09T03:01:03.795Z,100609.80
2019-03-09T03:03:08.889Z,100592.69
2019-03-09T03:05:10.395Z,100585.59
2019-03-09T03:07:11.757Z,100581.23
2019-03-09T03:09:13.110Z,100577.19
2019-03-09T03:11:14.592Z,100566.92
2019-03-09T03:13:15.943Z,100559.63
2019-03-09T03:15:36.753Z,100561.73
2019-03-09T03:17:38.104Z,100552.09
2019-03-09T03:19:39.613Z,100549.09
2019-03-09T03:21:40.977Z,100540.30
2019-03-09T03:23:42.328Z,100536.52
2019-03-09T03:25:43.811Z,100541.78
2019-03-09T03:27:45.192Z,100536.76
2019-03-09T03:29:46.597Z,100535.65
2019-03-09T03:31:47.947Z,100528.81
2019-03-09T03:33:49.308Z,100525.95
2019-03-09T03:35:50.867Z,100519.46
2019-03-09T03:37:52.220Z,100512.99
2019-03-09T03:39:53.576Z,100508.02
2019-03-09T03:41:55.058Z,100497.73
2019-03-09T03:43:56.434Z,100504.83
2019-03-09T03:45:57.797Z,100483.79
2019-03-09T03:47:59.157Z,100486.95
2019-03-09T03:50:00.648Z,100482.52
2019-03-09T03:52:02.086Z,100477.25
2019-03-09T03:54:03.474Z,100474.28
2019-03-09T03:56:04.896Z,100467.69
2019-03-09T03:58:06.516Z,100463.73
2019-03-09T04:00:13.349Z,100457.39
2019-03-09T04:02:14.720Z,100462.50
2019-03-09T04:04:16.116Z,100462.34
2019-03-09T04:06:17.700Z,100447.50
2019-03-09T04:08:19.299Z,100440.65
2019-03-09T04:10:20.923Z,100437.31
2019-03-09T04:12:24.706Z,100436.84
2019-03-09T04:14:28.354Z,100430.47
2019-03-09T04:16:48.014Z,100425.55
2019-03-09T04:18:59.735Z,100413.63
2019-03-09T04:21:02.073Z,100412.69
2019-03-09T04:23:03.813Z,100400.83
2019-03-09T04:25:06.887Z,100399.58
2019-03-09T04:27:08.377Z,100393.69
2019-03-09T04:29:09.768Z,100394.33
2019-03-09T04:31:11.131Z,100392.55
2019-03-09T04:33:12.530Z,100380.80
2019-03-09T04:35:14.275Z,100372.77
2019-03-09T04:37:15.612Z,100362.91
2019-03-09T04:39:17.011Z,100362.80
2019-03-09T04:41:18.335Z,100345.94
2019-03-09T04:43:19.687Z,100342.89
2019-03-09T04:45:21.079Z,100335.33
2019-03-09T04:47:22.431Z,100339.91
2019-03-09T04:49:23.794Z,100329.05
2019-03-09T04:51:25.174Z,100334.31
2019-03-09T04:53:26.540Z,100325.00
2019-03-09T04:55:27.926Z,100326.61
2019-03-09T04:57:29.270Z,100318.94
2019-03-09T04:59:30.713Z,100310.38
2019-03-09T05:01:32.030Z,100302.48
2019-03-09T05:03:33.465Z,100300.66
2019-03-09T05:05:34.846Z,100299.91
2019-03-09T05:07:38.722Z,100289.03
2019-03-09T05:10:12.070Z,100286.11
2019-03-09T05:12:13.413Z,100280.34
2019-03-09T05:14:14.797Z,100278.39
2019-03-09T05:16:16.140Z,100271.66
2019-03-09T05:18:17.492Z,100276.27
2019-03-09T05:20:18.904Z,100271.02
2019-03-09T05:22:20.259Z,100263.81
2019-03-09T05:24:21.661Z,100260.23
2019-03-09T05:26:23.129Z,100256.80
2019-03-09T05:28:24.485Z,100254.27
2019-03-09T05:30:40.870Z,100252.12
2019-03-09T05:32:42.250Z,100245.25
2019-03-09T05:34:43.698Z,100251.31
2019-03-09T05:36:45.031Z,100237.02
2019-03-09T05:38:46.371Z,100243.45
2019-03-09T05:40:47.734Z,100228.34
2019-03-09T05:42:49.096Z,100227.26
2019-03-09T05:44:50.480Z,100223.53
2019-03-09T05:46:51.874Z,100218.29
2019-03-09T05:48:53.220Z,100210.41
2019-03-09T05:50:54.558Z,100214.73
2019-03-09T05:53:10.057Z,100214.84
2019-03-09T05:55:11.714Z,100217.27
2019-03-09T05:57:13.070Z,100210.36
2019-03-09T05:59:14.488Z,100204.38
2019-03-09T06:01:15.800Z,100207.09
2019-03-09T06:03:17.190Z,100198.64
2019-03-09T06:05:36.892Z,100201.91
2019-03-09T06:07:38.217Z,100198.06
2019-03-09T06:09:39.559Z,100192.87
2019-03-09T06:11:40.954Z,100188.34
2019-03-09T06:13:42.284Z,100189.27
2019-03-09T06:15:43.658Z,100190.35
2019-03-09T06:17:45.043Z,100189.04
2019-03-09T06:19:46.797Z,100180.61
2019-03-09T06:21:48.136Z,100171.86
2019-03-09T06:23:49.526Z,100169.17
2019-03-09T06:25:50.997Z,100184.23
2019-03-09T06:27:52.362Z,100177.89
2019-03-09T06:29:53.725Z,100178.30
2019-03-09T06:32:32.974Z,100176.31
2019-03-09T06:34:34.308Z,100183.52
2019-03-09T06:36:47.360Z,100179.77
2019-03-09T06:38:59.091Z,100170.50
2019-03-09T06:41:03.274Z,100176.22
2019-03-09T06:43:03.703Z,100175.87
2019-03-09T06:45:09.200Z,100166.35
2019-03-09T06:47:10.587Z,100165.00
2019-03-09T06:49:12.193Z,100162.98
2019-03-09T06:51:13.514Z,100160.04
2019-03-09T06:53:14.855Z,100157.98
2019-03-09T06:55:16.310Z,100169.22
2019-03-09T06:57:17.672Z,100163.20
2019-03-09T06:59:19.017Z,100159.31
2019-03-09T07:01:21.369Z,100156.81
2019-03-09T07:03:22.701Z,100144.69
2019-03-09T07:05:24.057Z,100147.68
2019-03-09T07:07:25.438Z,100138.58
2019-03-09T07:09:26.820Z,100145.86
2019-03-09T07:11:28.186Z,100148.48
2019-03-09T07:13:29.592Z,100139.95
2019-03-09T07:15:37.939Z,100127.63
2019-03-09T07:17:39.341Z,100126.64
2019-03-09T07:19:40.715Z,100134.87
2019-03-09T07:21:42.115Z,100140.41
2019-03-09T07:23:43.529Z,100135.33
2019-03-09T07:25:44.909Z,100131.52
2019-03-09T07:28:06.782Z,100137.73
2019-03-09T07:30:13.139Z,100124.59
2019-03-09T07:32:14.510Z,100119.73
2019-03-09T07:34:25.928Z,100124.22
2019-03-09T07:36:27.312Z,100120.27
2019-03-09T07:38:28.652Z,100122.09
2019-03-09T07:40:30.009Z,100133.31
2019-03-09T07:42:31.387Z,100135.37
2019-03-09T07:44:32.766Z,100134.91
2019-03-09T07:46:34.110Z,100117.52
2019-03-09T07:48:35.483Z,100128.33
2019-03-09T07:50:36.842Z,100136.77
2019-03-09T07:52:38.229Z,100135.37
2019-03-09T07:54:39.596Z,100130.09
2019-03-09T07:56:40.945Z,100118.53
2019-03-09T07:58:42.333Z,100111.69
2019-03-09T08:00:43.820Z,100127.58
2019-03-09T08:02:45.159Z,100115.14
2019-03-09T08:04:46.509Z,100147.75
2019-03-09T08:06:47.888Z,100128.55
2019-03-09T08:08:49.227Z,100137.15
2019-03-09T08:10:50.573Z,100160.61
2019-03-09T08:12:52.065Z,100142.43
2019-03-09T08:14:53.445Z,100146.38
2019-03-09T08:16:54.806Z,100139.64
2019-03-09T08:18:56.367Z,100163.30
2019-03-09T08:20:57.724Z,100153.12
2019-03-09T08:22:59.073Z,100146.84
2019-03-09T08:25:00.649Z,100159.01
2019-03-09T08:27:01.989Z,100176.95
2019-03-09T08:29:03.359Z,100191.89
2019-03-09T08:31:04.753Z,100195.07
2019-03-09T08:33:06.127Z,100199.41
2019-03-09T08:35:08.481Z,100190.45
2019-03-09T08:37:09.868Z,100199.23
2019-03-09T08:39:11.272Z,100193.03
2019-03-09T08:41:12.599Z,100198.42
2019-03-09T08:43:13.938Z,100197.33
2019-03-09T08:45:20.076Z,100201.20
2019-03-09T08:47:21.427Z,100220.89
2019-03-09T08:49:22.792Z,100232.84
2019-03-09T08:51:24.159Z,100240.22
2019-03-09T08:53:25.494Z,100213.03
2019-03-09T08:55:26.916Z,100211.67
2019-03-09T08:57:28.241Z,100220.12
2019-03-09T08:59:29.653Z,100230.48
2019-03-09T09:01:31.100Z,100227.16
2019-03-09T09:03:32.462Z,100230.52
2019-03-09T09:05:33.816Z,100225.67
2019-03-09T09:07:35.308Z,100229.71
2019-03-09T09:09:36.694Z,100221.46
2019-03-09T09:11:38.050Z,100221.14
2019-03-09T09:13:39.433Z,100209.81
2019-03-09T09:15:40.829Z,100217.96
2019-03-09T09:17:42.196Z,100208.78
2019-03-09T09:19:43.585Z,100225.55
2019-03-09T09:21:44.946Z,100224.38
2019-03-09T09:23:46.288Z,100230.50
2019-03-09T09:25:47.665Z,100225.60
2019-03-09T09:27:51.669Z,100224.41
2019-03-09T09:29:52.585Z,100216.73
2019-03-09T09:31:54.062Z,100219.82
2019-03-09T09:33:55.426Z,100269.69
2019-03-09T09:35:56.812Z,100226.56
2019-03-09T09:37:58.376Z,100221.27
2019-03-09T09:39:59.777Z,100236.56
2019-03-09T09:42:01.233Z,100238.77
2019-03-09T09:44:03.317Z,100245.90
2019-03-09T09:46:04.772Z,100236.28
2019-03-09T09:48:06.158Z,100257.00
2019-03-09T09:50:11.200Z,100244.98
2019-03-09T09:52:12.565Z,100245.00
2019-03-09T09:54:13.978Z,100237.52
2019-03-09T09:56:15.391Z,100240.84
2019-03-09T09:58:16.788Z,100242.11
2019-03-09T10:00:22.178Z,100250.56
2019-03-09T10:02:23.519Z,100236.33
2019-03-09T10:04:24.907Z,100233.37
2019-03-09T10:06:26.268Z,100242.66
2019-03-09T10:08:27.662Z,100231.59
2019-03-09T10:10:29.878Z,100233.98
2019-03-09T10:12:31.967Z,100231.20
2019-03-09T10:14:33.343Z,100233.34
2019-03-09T10:16:34.759Z,100235.09
2019-03-09T10:18:36.146Z,100243.30
2019-03-09T10:20:37.504Z,100256.34
2019-03-09T10:22:38.837Z,100275.17
2019-03-09T10:24:40.211Z,100271.84
2019-03-09T10:26:41.587Z,100279.03
2019-03-09T10:28:42.986Z,100279.44
2019-03-09T10:30:44.348Z,100261.92
2019-03-09T10:32:45.824Z,100265.77
2019-03-09T10:34:47.195Z,100282.33
2019-03-09T10:36:48.587Z,100277.50
2019-03-09T10:38:49.938Z,100264.91
2019-03-09T10:40:51.520Z,100272.30
2019-03-09T10:42:52.864Z,100258.33
2019-03-09T10:44:54.196Z,100269.39
2019-03-09T10:46:55.566Z,100270.73
2019-03-09T10:48:57.215Z,100268.84
2019-03-09T10:50:58.557Z,100272.62
2019-03-09T10:52:59.919Z,100278.14
2019-03-09T10:55:01.321Z,100274.20
2019-03-09T10:57:02.666Z,100285.59
2019-03-09T10:59:04.042Z,100273.16
2019-03-09T11:01:05.830Z,100264.64
2019-03-09T11:03:07.346Z,100267.20
2019-03-09T11:05:09.994Z,100267.82
2019-03-09T11:07:11.356Z,100270.05
2019-03-09T11:09:12.749Z,100265.08
2019-03-09T11:11:14.132Z,100270.13
2019-03-09T11:13:15.564Z,100272.33
2019-03-09T11:15:16.953Z,100266.57
2019-03-09T11:17:18.345Z,100259.12
2019-03-09T11:19:19.712Z,100274.13
2019-03-09T11:21:21.276Z,100275.64
2019-03-09T11:23:22.644Z,100274.58
2019-03-09T11:25:23.979Z,100279.45
2019-03-09T11:27:25.361Z,100255.50
2019-03-09T11:29:28.269Z,100267.23
2019-03-09T11:31:29.853Z,100263.02
2019-03-09T11:33:31.262Z,100266.84
2019-03-09T11:35:32.950Z,100266.70
2019-03-09T11:37:34.458Z,100257.03
2019-03-09T11:39:35.844Z,100259.59
2019-03-09T11:41:37.311Z,100254.33
2019-03-09T11:43:38.682Z,100252.12
2019-03-09T11:45:40.075Z,100261.78
2019-03-09T11:47:41.428Z,100250.34
2019-03-09T11:49:42.774Z,100254.28
2019-03-09T11:51:44.167Z,100242.81
2019-03-09T11:53:45.525Z,100253.72
2019-03-09T11:55:46.866Z,100236.73
2019-03-09T11:57:48.256Z,100244.73
2019-03-09T11:59:49.817Z,100243.30
2019-03-09T12:01:51.159Z,100237.61
2019-03-09T12:03:52.510Z,100236.74
2019-03-09T12:05:53.930Z,100243.67
2019-03-09T12:07:55.265Z,100243.53
2019-03-09T12:09:56.605Z,100242.77
2019-03-09T12:12:00.999Z,100251.68
2019-03-09T12:14:02.495Z,100236.59
2019-03-09T12:16:03.952Z,100250.97
2019-03-09T12:18:05.353Z,100241.18
2019-03-09T12:20:09.412Z,100259.53
2019-03-09T12:22:10.749Z,100239.28
2019-03-09T12:24:17.449Z,100247.36
2019-03-09T12:26:16.242Z,100252.23
2019-03-09T12:28:17.750Z,100258.05
2019-03-09T12:30:19.423Z,100258.28
2019-03-09T12:32:20.789Z,100250.78
2019-03-09T12:34:22.175Z,100251.28
2019-03-09T12:36:23.542Z,100248.70
2019-03-09T12:38:24.886Z,100257.11
2019-03-09T12:40:26.307Z,100247.22
2019-03-09T12:42:27.689Z,100243.23
2019-03-09T12:44:29.027Z,100246.34
2019-03-09T12:46:30.695Z,100251.48
2019-03-09T12:48:32.067Z,100242.59
2019-03-09T12:50:33.420Z,100232.14
2019-03-09T12:52:34.805Z,100238.79
2019-03-09T12:54:36.402Z,100239.36
2019-03-09T12:56:37.777Z,100236.89
2019-03-09T12:58:39.101Z,100229.56
2019-03-09T13:00:40.516Z,100229.14
2019-03-09T13:02:41.882Z,100220.30
2019-03-09T13:04:43.322Z,100223.66
2019-03-09T13:06:44.710Z,100201.92
2019-03-09T13:08:46.076Z,100205.91
2019-03-09T13:10:47.440Z,100200.34
2019-03-09T13:12:48.805Z,100190.18
2019-03-09T13:14:50.460Z,100178.47
2019-03-09T13:16:51.837Z,100170.50
2019-03-09T13:18:53.243Z,100166.70
2019-03-09T13:20:54.587Z,100168.42
2019-03-09T13:22:55.952Z,100169.31
2019-03-09T13:24:57.340Z,100164.31
2019-03-09T13:26:58.702Z,100160.26
2019-03-09T13:29:00.112Z,100169.20
2019-03-09T13:31:01.460Z,100150.21
2019-03-09T13:33:02.795Z,100156.50
2019-03-09T13:35:04.370Z,100150.31
2019-03-09T13:37:05.730Z,100147.34
2019-03-09T13:39:07.635Z,100169.27
2019-03-09T13:41:09.014Z,100153.47
2019-03-09T13:43:10.397Z,100151.97
2019-03-09T13:45:17.019Z,100143.62
2019-03-09T13:47:18.401Z,100140.85
2019-03-09T13:49:19.772Z,100136.78
2019-03-09T13:51:21.198Z,100134.80
2019-03-09T13:53:22.587Z,100132.93
2019-03-09T13:55:23.948Z,100135.56
2019-03-09T13:57:25.283Z,100137.41
2019-03-09T13:59:27.441Z,100133.53
2019-03-09T14:01:28.980Z,100126.29
2019-03-09T14:03:30.428Z,100128.00
2019-03-09T14:05:31.790Z,100131.76
2019-03-09T14:07:33.171Z,100121.69
2019-03-09T14:09:34.737Z,100120.11
2019-03-09T14:11:36.103Z,100113.55
2019-03-09T14:13:37.458Z,100100.97
2019-03-09T14:15:38.858Z,100106.67
2019-03-09T14:17:40.196Z,100080.38
2019-03-09T14:19:41.564Z,100088.33
2019-03-09T14:21:42.931Z,100066.78
2019-03-09T14:23:46.210Z,100056.61
2019-03-09T14:25:47.583Z,100051.33
2019-03-09T14:27:48.967Z,100054.61
2019-03-09T14:29:50.307Z,100066.17
2019-03-09T14:31:51.667Z,100047.23
2019-03-09T14:33:53.044Z,100038.52
2019-03-09T14:35:54.390Z,100034.69
2019-03-09T14:37:55.750Z,100034.53
2019-03-09T14:39:57.156Z,100038.83
2019-03-09T14:41:58.524Z,100032.17
2019-03-09T14:43:59.885Z,100026.48
2019-03-09T14:46:01.256Z,100027.41
2019-03-09T14:48:02.596Z,100017.09
2019-03-09T14:50:07.279Z,100007.61
2019-03-09T14:52:08.635Z,100006.78
2019-03-09T14:54:09.993Z,100007.59
2019-03-09T14:56:11.369Z,99996.56
2019-03-09T14:58:12.752Z,100005.45
2019-03-09T15:00:21.852Z,99983.13
2019-03-09T15:02:23.221Z,99979.59
2019-03-09T15:04:25.271Z,99974.04
2019-03-09T15:06:26.637Z,99973.31
2019-03-09T15:08:28.016Z,99977.56
2019-03-09T15:10:29.389Z,99967.22
2019-03-09T15:12:30.846Z,99956.51
2019-03-09T15:14:32.203Z,99951.62
2019-03-09T15:16:33.595Z,99943.85
2019-03-09T15:18:34.940Z,99939.83
2019-03-09T15:20:36.285Z,99933.65
2019-03-09T15:22:37.672Z,99926.27
2019-03-09T15:24:39.132Z,99933.11
2019-03-09T15:26:40.515Z,99968.78
2019-03-09T15:28:41.894Z,100011.27
2019-03-09T15:30:43.513Z,100037.97
2019-03-09T15:32:44.882Z,100049.98
2019-03-09T15:34:46.528Z,100025.75
2019-03-09T15:36:48.539Z,100008.57
2019-03-09T15:38:50.314Z,99976.45
2019-03-09T15:40:51.717Z,99973.39
2019-03-09T15:42:53.145Z,99982.30
2019-03-09T15:44:54.584Z,99975.94
2019-03-09T15:46:56.041Z,99965.40
2019-03-09T15:48:57.572Z,99965.63
2019-03-09T15:50:59.193Z,99963.27
2019-03-09T15:53:00.567Z,99958.77
2019-03-09T15:55:03.527Z,99960.66
2019-03-09T15:57:04.925Z,99969.34
2019-03-09T15:59:06.417Z,99979.96
2019-03-09T16:01:07.919Z,99989.85
2019-03-09T16:03:09.301Z,100005.36
2019-03-09T16:05:10.859Z,100002.20
2019-03-09T16:07:12.357Z,99999.33
2019-03-09T16:09:13.766Z,100005.02
2019-03-09T16:11:15.143Z,99998.86
2019-03-09T16:13:16.530Z,100031.24
2019-03-09T16:15:18.029Z,100025.19
2019-03-09T16:17:19.429Z,100049.22
2019-03-09T16:19:20.759Z,100046.86
2019-03-09T16:21:22.162Z,100051.23
2019-03-09T16:23:23.522Z,100040.09
2019-03-09T16:25:24.887Z,100013.20
2019-03-09T16:27:26.289Z,99997.91
2019-03-09T16:29:27.676Z,99996.36
2019-03-09T16:31:29.038Z,99989.95
2019-03-09T16:33:30.447Z,99989.25
2019-03-09T16:35:31.796Z,99980.09
2019-03-09T16:37:33.260Z,99955.61
2019-03-09T16:39:34.668Z,99932.20
2019-03-09T16:41:36.039Z,99911.77
2019-03-09T16:43:37.428Z,99908.13
2019-03-09T16:45:38.822Z,99905.03
2019-03-09T16:47:40.202Z,99913.57
2019-03-09T16:49:41.640Z,99900.65
2019-03-09T16:51:42.978Z,99895.77
2019-03-09T16:53:44.389Z,99907.11
2019-03-09T16:55:45.748Z,99910.17
2019-03-09T16:57:47.101Z,99898.11
2019-03-09T16:59:48.495Z,99894.72
2019-03-09T17:01:50.156Z,99882.03
2019-03-09T17:03:51.517Z,99882.45
2019-03-09T17:05:52.902Z,99864.98
2019-03-09T17:07:54.319Z,99879.44
2019-03-09T17:09:55.691Z,99877.83
2019-03-09T17:11:57.054Z,99853.03
2019-03-09T17:13:58.473Z,99848.89
2019-03-09T17:15:59.826Z,99837.46
2019-03-09T17:18:01.185Z,99847.34
2019-03-09T17:20:05.806Z,99870.97
2019-03-09T17:22:07.773Z,99859.65
2019-03-09T17:24:09.143Z,99866.59
2019-03-09T17:26:10.846Z,99855.69
2019-03-09T17:28:12.627Z,99840.91
2019-03-09T17:30:16.928Z,99871.41
2019-03-09T17:32:25.798Z,99903.89
2019-03-09T17:34:22.473Z,99963.85
2019-03-09T17:36:24.278Z,99992.06
2019-03-09T17:38:25.944Z,99996.79
2019-03-09T17:40:27.634Z,99965.69
2019-03-09T17:42:29.485Z,99956.37
2019-03-09T17:44:31.252Z,99925.78
2019-03-09T17:46:33.140Z,99892.87
2019-03-09T17:48:35.028Z,99855.98
2019-03-09T17:50:36.915Z,99825.43
2019-03-09T17:52:38.678Z,99821.27
2019-03-09T17:54:41.735Z,99832.52
2019-03-09T17:56:43.543Z,99836.55
2019-03-09T17:58:45.399Z,99820.72
2019-03-09T18:00:47.884Z,99811.03
2019-03-09T18:02:49.713Z,99809.28
2019-03-09T18:04:52.780Z,99810.77
2019-03-09T18:06:54.654Z,99819.11
2019-03-09T18:08:56.452Z,99812.36
2019-03-09T18:11:07.093Z,99828.81
2019-03-09T18:13:08.868Z,99823.49
2019-03-09T18:15:10.704Z,99819.16
2019-03-09T18:17:12.478Z,99829.11
2019-03-09T18:19:14.260Z,99846.05
2019-03-09T18:21:16.153Z,99853.38
2019-03-09T18:23:18.012Z,99854.20
2019-03-09T18:25:19.815Z,99862.73
2019-03-09T18:27:21.582Z,99861.00
2019-03-09T18:29:22.983Z,99855.91
2019-03-09T18:31:24.352Z,99855.81
2019-03-09T18:33:25.725Z,99861.41
2019-03-09T18:35:27.122Z,99851.52
2019-03-09T18:37:28.589Z,99855.58
2019-03-09T18:39:30.021Z,99860.58
2019-03-09T18:41:31.449Z,99864.25
2019-03-09T18:43:32.836Z,99852.17
2019-03-09T18:45:34.200Z,99853.00
2019-03-09T18:47:35.559Z,99848.05
2019-03-09T18:49:36.949Z,99853.34
2019-03-09T18:51:38.318Z,99845.51
2019-03-09T18:53:39.697Z,99864.20
2019-03-09T18:55:41.090Z,99867.76
2019-03-09T18:57:42.502Z,99874.41
2019-03-09T18:59:43.923Z,99873.55
2019-03-09T19:01:45.504Z,99879.33
2019-03-09T19:03:46.821Z,99869.61
2019-03-09T19:05:48.193Z,99864.80
2019-03-09T19:07:49.608Z,99874.53
2019-03-09T19:09:51.000Z,99870.17
2019-03-09T19:11:52.400Z,99852.05
2019-03-09T19:13:54.512Z,99854.23
2019-03-09T19:15:56.951Z,99852.30
2019-03-09T19:17:59.187Z,99855.70
2019-03-09T19:20:00.575Z,99855.64
2019-03-09T19:22:01.979Z,99860.05
2019-03-09T19:24:03.472Z,99864.37
2019-03-09T19:26:04.882Z,99864.41
2019-03-09T19:28:06.244Z,99869.73
2019-03-09T19:30:16.200Z,99872.20
2019-03-09T19:32:17.618Z,99887.72
2019-03-09T19:34:19.007Z,99888.18
2019-03-09T19:36:23.484Z,99887.02
2019-03-09T19:38:24.924Z,99885.11
2019-03-09T19:40:26.295Z,99902.02
2019-03-09T19:42:27.696Z,99907.02
2019-03-09T19:44:29.840Z,99924.20
2019-03-09T19:46:33.310Z,99909.66
2019-03-09T19:48:38.318Z,99914.92
2019-03-09T19:50:42.105Z,99930.89
2019-03-09T19:52:45.767Z,99933.97
2019-03-09T19:54:48.091Z,99934.78
2019-03-09T19:56:54.445Z,99931.68
2019-03-09T19:58:55.955Z,99943.64
2019-03-09T20:00:59.431Z,99945.15
2019-03-09T20:03:02.020Z,99957.91
2019-03-09T20:05:07.826Z,99966.29
2019-03-09T20:07:12.019Z,99973.02
2019-03-09T20:09:16.044Z,99993.67
2019-03-09T20:11:18.289Z,99991.08
2019-03-09T20:13:21.653Z,99996.66
2019-03-09T20:15:26.119Z,99986.77
2019-03-09T20:17:29.311Z,100003.79
2019-03-09T20:19:32.596Z,100001.34
2019-03-09T20:21:35.295Z,100022.50
2019-03-09T20:23:38.067Z,100021.58
2019-03-09T20:25:43.141Z,100022.58
2019-03-09T20:27:47.693Z,100024.08
2019-03-09T20:29:50.842Z,100055.46
2019-03-09T20:31:53.749Z,100049.55
2019-03-09T20:33:58.226Z,100071.32
2019-03-09T20:36:01.638Z,100071.32
2019-03-09T20:38:04.871Z,100084.02
2019-03-09T20:40:16.153Z,100076.90
2019-03-09T20:42:19.991Z,100092.47
2019-03-09T20:44:23.607Z,100090.09
2019-03-09T20:46:27.456Z,100092.34
2019-03-09T20:48:31.112Z,100108.42
2019-03-09T20:50:35.513Z,100133.27
2019-03-09T20:52:40.481Z,100145.60
2019-03-09T20:54:44.463Z,100154.59
2019-03-09T20:56:49.591Z,100170.13
2019-03-09T20:58:51.456Z,100187.13
2019-03-09T21:00:53.632Z,100181.49
2019-03-09T21:02:56.576Z,100206.91
2019-03-09T21:05:00.442Z,100203.16
2019-03-09T21:07:03.295Z,100247.37
2019-03-09T21:09:08.046Z,100248.23
2019-03-09T21:11:10.929Z,100258.91
2019-03-09T21:13:13.873Z,100279.30
2019-03-09T21:15:16.577Z,100250.48
2019-03-09T21:17:22.537Z,100292.27
2019-03-09T21:19:25.823Z,100333.92
2019-03-09T21:21:28.770Z,100332.01
2019-03-09T21:23:31.719Z,100335.30
2019-03-09T21:25:35.573Z,100345.02
2019-03-09T21:27:39.290Z,100360.20
2019-03-09T21:29:42.015Z,100371.04
2019-03-09T21:31:44.684Z,100387.50
2019-03-09T21:33:48.549Z,100392.64
2019-03-09T21:35:50.404Z,100406.64
2019-03-09T21:37:54.498Z,100411.41
2019-03-09T21:39:58.318Z,100427.69
2019-03-09T21:42:02.312Z,100424.86
2019-03-09T21:44:05.012Z,100419.87
2019-03-09T21:46:08.572Z,100429.63
2019-03-09T21:48:11.861Z,100445.94
2019-03-09T21:50:16.593Z,100453.30
2019-03-09T21:52:21.566Z,100464.17
2019-03-09T21:54:24.436Z,100474.06
2019-03-09T21:56:25.843Z,100481.22
2019-03-09T21:58:27.178Z,100490.58
2019-03-09T22:00:28.901Z,100502.31
2019-03-09T22:02:30.294Z,100512.51
2019-03-09T22:04:31.674Z,100500.69
2019-03-09T22:06:33.080Z,100516.95
2019-03-09T22:08:34.446Z,100513.64
2019-03-09T22:10:35.828Z,100545.03
2019-03-09T22:12:37.217Z,100534.92
2019-03-09T22:14:38.605Z,100515.03
2019-03-09T22:16:41.882Z,100536.44
2019-03-09T22:18:43.261Z,100535.87
2019-03-09T22:20:44.645Z,100529.92
2019-03-09T22:22:46.025Z,100534.06
2019-03-09T22:24:47.365Z,100532.03
2019-03-09T22:26:48.785Z,100546.84
2019-03-09T22:28:50.177Z,100545.29
2019-03-09T22:30:51.634Z,100544.23
2019-03-09T22:32:53.038Z,100552.92
2019-03-09T22:34:54.486Z,100550.17
2019-03-09T22:36:55.867Z,100549.34
2019-03-09T22:38:57.240Z,100562.22
2019-03-09T22:40:58.679Z,100564.64
2019-03-09T22:43:00.048Z,100568.66
2019-03-09T22:45:01.400Z,100561.81
2019-03-09T22:47:10.964Z,100560.98
2019-03-09T22:49:06.194Z,100573.30
2019-03-09T22:51:07.564Z,100561.33
2019-03-09T22:53:08.975Z,100578.36
2019-03-09T22:55:10.601Z,100570.22
2019-03-09T22:57:11.946Z,100575.45
2019-03-09T22:59:13.359Z,100571.42
2019-03-09T23:01:14.725Z,100573.53
2019-03-09T23:03:16.262Z,100574.84
2019-03-09T23:05:29.246Z,100569.73
2019-03-09T23:07:30.615Z,100580.34
2019-03-09T23:09:32.094Z,100595.66
2019-03-09T23:11:35.336Z,100591.08
2019-03-09T23:13:36.718Z,100585.56
2019-03-09T23:15:38.129Z,100584.73
2019-03-09T23:17:39.587Z,100596.33
2019-03-09T23:19:41.053Z,100585.47
2019-03-09T23:21:42.475Z,100590.77
2019-03-09T23:23:43.887Z,100592.82